Terminal Aerodrome Forecast
Issued by NWS Upton, NY

Home | Current Version | Previous Version | Text Only | Print | Product List | Glossary On
Versions: 1 2 3 4 5 6 7 8 9 10 11 12 13 14 15 16 17 18 19 20 21 22 23 24 25 26 27 28 29 30 31 32
000
FTUS41 KOKX 042145 AAE
TAFBDR
TAF AMD
KBDR 042145Z 0422/0518 08012G20KT 4SM -RA BR OVC015
     FM042300 05016G23KT 4SM -RA BR OVC015
     FM050100 05016G24KT 6SM BR OVC010
     FM050400 04014KT 6SM -DZ OVC008
     FM051000 02013G18KT 6SM -DZ OVC015=

USA.gov is the U.S. government's official web portal to all federal, state and local government web resources and services.